Sargent, Georgia
Current Conditions -  °F | °C
As of 9:15 AM on Thursday 27 Nov 2014 (Local Time) from KCCO Reporting Station
Scattered Clouds Scattered Clouds  
Wind Chill: 37°   Ceiling: Unl
Heat Index: 43°   Visibility: 10mi
Dew Point: 33°   Wind: 12mph
Humidity: 66%   Direction: 300°WNW
Pressure: 30.26"   Gusts: 18mph
Location:  33.43°N, 84.87°W
Report Text: KCCO 271415Z AUTO 30010G16KT 10SM SCT034 SCT041 06/00 A3026 RMK AO2 T00630004
Loading
Personal Weather Stations






























Interactive Weather Map New forecast layout! Learn more

10-Day Weather Forecast

Advertisements
Track Severe Weather on mobile